Aviation Digital Data Service (ADDS)

Output produced by METARs form (0012 UTC 02 July 2016)
found at http://www.aviationweather.gov/adds/metars/
 
KSAV 012353Z 18007KT 10SM FEW040 SCT100 BKN150 27/23 A2998 RMK AO2 SLP153 60000 T02670228 10328 20267 55004